Date,TemperatureHighF,TemperatureAvgF,TemperatureLowF,DewpointHighF,DewpointAvgF,DewpointLowF,HumidityHigh,HumidityAvg,HumidityLow,PressureMaxIn,PressureMinIn,WindSpeedMaxMPH,WindSpeedAvgMPH,GustSpeedMaxMPH,PrecipitationSumIn
2012-1-1,44,36,28,39,33,25,99,87,76,0.00,40.00,15,10,0,0.03
2012-1-2,27,23,19,26,22,15,98,93,83,0.00,40.00,11,9,0,0.00
2012-1-3,24,18,16,16,8,-100,92,74,68,0.00,40.00,6,-46,0,0.01
2012-1-4,34,24,19,28,4,-100,85,64,65,0.00,40.00,8,-129,0,0.00
2012-1-5,40,32,24,33,27,23,95,81,65,0.00,40.00,11,3,0,0.00
2012-1-6,50,40,37,39,34,32,88,78,65,0.00,40.00,9,6,0,0.00
2012-1-7,42,37,30,35,30,25,86,76,65,0.00,40.00,10,5,0,0.00
2012-1-8,40,30,23,28,26,23,98,84,60,0.00,40.00,3,1,0,0.00
2012-1-9,41,32,24,29,26,23,100,81,55,0.00,40.00,10,4,0,0.00
2012-1-10,47,35,26,35,30,25,99,83,61,0.00,40.00,6,3,0,0.00
2012-1-11,47,37,28,35,32,27,96,82,59,0.00,40.00,7,2,0,0.00
2012-1-12,39,33,17,39,31,15,99,94,82,0.00,40.00,11,2,0,0.12
2012-1-13,28,21,17,28,20,16,100,95,89,0.00,40.00,8,2,0,0.00
2012-1-14,19,16,12,16,12,9,89,85,75,0.00,40.00,8,4,0,0.00
2012-1-15,23,11,-2,14,6,-5,93,79,61,0.00,40.00,6,2,0,0.03
2012-1-16,42,33,22,40,28,14,97,82,70,0.00,40.00,8,4,0,0.04
2012-1-17,46,36,25,46,35,22,100,96,85,0.00,40.00,13,6,0,0.47
2012-1-18,25,23,20,21,17,14,86,78,63,0.00,40.00,9,6,0,0.00
2012-1-19,26,19,11,25,15,6,98,82,71,0.00,40.00,14,8,0,0.00
2012-1-20,15,12,9,12,9,6,94,88,70,0.00,40.00,11,4,0,0.00
2012-1-21,22,14,6,14,10,4,94,85,67,0.00,40.00,8,4,0,0.03
2012-1-22,37,24,8,37,23,6,100,95,87,0.00,40.00,7,5,0,0.13
2012-1-23,47,39,30,45,37,24,100,93,76,0.00,40.00,15,9,0,0.28
2012-1-24,31,29,23,26,24,22,94,82,77,0.00,40.00,9,6,0,0.00
2012-1-25,31,29,25,28,26,24,97,87,80,0.00,40.00,6,3,0,0.00
2012-1-26,33,31,30,33,31,28,100,97,90,0.00,40.00,7,4,0,0.41
2012-1-27,40,35,31,34,30,26,100,82,59,0.00,40.00,10,5,0,0.02
2012-1-28,33,31,27,32,26,17,101,84,59,0.00,40.00,14,9,0,0.01
2012-1-29,30,27,22,28,22,16,99,82,67,0.00,40.00,12,7,0,0.00
2012-1-30,43,30,12,34,23,10,94,77,63,0.00,40.00,8,5,0,0.01
2012-1-31,53,47,40,47,40,34,92,77,66,0.00,40.00,13,9,0,0.03
2012-2-1,50,41,36,48,37,32,95,86,78,0.00,40.00,8,5,0,0.00
2012-2-2,44,36,28,34,31,28,99,82,67,0.00,40.00,5,2,0,0.00
2012-2-3,39,32,27,36,31,27,100,96,83,0.00,40.00,7,1,0,0.00
2012-2-4,42,34,30,31,30,28,94,83,64,0.00,40.00,8,4,0,0.00
2012-2-5,45,31,20,31,26,20,99,83,51,0.00,40.00,7,2,0,0.00
2012-2-6,35,29,24,32,27,24,99,92,81,0.00,40.00,9,4,0,0.01
2012-2-7,36,32,29,31,28,24,94,87,73,0.00,40.00,8,5,0,0.00
2012-2-8,35,29,22,24,20,17,84,69,54,0.00,40.00,8,5,0,0.00
2012-2-9,35,26,19,22,20,18,94,76,49,0.00,40.00,10,6,0,0.00
2012-2-10,33,28,16,32,25,13,99,86,77,0.00,40.00,12,6,0,0.00
2012-2-11,21,14,6,15,9,3,87,79,61,0.00,40.00,13,7,0,0.00
2012-2-12,29,24,18,17,15,12,79,70,58,0.00,40.00,13,8,0,0.00
2012-2-13,32,25,16,20,14,10,77,63,44,0.00,40.00,8,4,0,0.00
2012-2-14,32,30,27,29,28,25,98,93,87,0.00,40.00,6,4,0,0.06
2012-2-15,41,36,32,38,32,28,97,87,76,0.00,40.00,9,5,0,0.20
2012-2-16,42,38,29,39,35,27,100,91,75,0.00,40.00,11,4,0,0.12
2012-2-17,44,37,27,31,28,25,94,71,47,0.00,40.00,10,5,0,0.00
2012-2-18,40,34,24,32,24,18,91,70,45,0.00,40.00,12,6,0,0.00
2012-2-19,36,26,20,21,19,17,89,74,50,0.00,40.00,8,5,0,0.00
2012-2-20,40,28,16,25,21,16,97,76,50,0.00,40.00,7,3,0,0.00
2012-2-21,41,36,32,39,31,24,99,83,64,0.00,40.00,11,7,0,0.10
2012-2-22,36,33,29,34,32,29,100,94,81,0.00,40.00,8,4,0,0.12
2012-2-23,36,32,29,35,32,29,101,99,96,0.00,40.00,10,3,0,0.08
2012-2-24,33,32,28,33,31,28,100,97,89,0.00,40.00,11,6,0,0.37
2012-2-25,28,24,13,27,22,12,99,89,74,0.00,40.00,9,1,0,0.00
2012-2-26,42,25,8,28,18,7,96,77,55,0.00,40.00,10,4,0,0.02
2012-2-27,38,34,30,28,24,22,76,67,56,0.00,40.00,14,7,0,0.00
2012-2-28,42,33,22,30,26,21,97,76,58,0.00,40.00,8,4,0,0.01
2012-2-29,64,45,35,50,36,29,99,76,32,0.00,40.00,17,10,0,0.75
2012-3-1,39,36,35,33,32,31,87,83,77,0.00,40.00,8,6,0,0.00
2012-3-2,47,38,33,46,35,30,96,90,78,0.00,40.00,14,7,0,0.18
2012-3-3,35,31,28,31,26,24,92,82,74,0.00,40.00,16,10,0,0.04
2012-3-4,31,29,27,29,26,24,96,90,79,0.00,40.00,7,4,0,0.02
2012-3-5,30,26,20,24,18,12,90,70,57,0.00,40.00,9,5,0,0.00
2012-3-6,64,45,30,38,30,21,75,57,37,0.00,40.00,12,8,0,0.00
2012-3-7,65,58,50,47,38,29,58,48,41,0.00,40.00,19,11,0,0.00
2012-3-8,61,45,32,54,37,24,95,74,55,0.00,40.00,17,10,0,0.18
2012-3-9,35,31,23,26,19,13,73,60,48,0.00,40.00,14,9,0,0.00
2012-3-10,52,36,21,28,20,15,85,56,34,0.00,40.00,11,6,0,0.00
2012-3-11,65,57,39,37,32,27,65,39,27,0.00,40.00,8,5,0,0.00
2012-3-12,67,56,49,57,50,37,96,78,55,0.00,40.00,10,6,0,0.36
2012-3-13,62,52,43,51,41,25,97,72,23,0.00,40.00,9,5,0,0.00
2012-3-14,79,58,39,60,46,33,88,66,37,0.00,40.00,10,4,0,0.00
2012-3-15,78,67,57,65,60,54,99,78,57,0.00,40.00,9,4,0,0.19
2012-3-16,78,65,53,62,58,52,97,79,55,0.00,40.00,5,3,0,0.00
2012-3-17,76,65,54,59,55,52,95,72,48,0.00,40.00,8,4,0,0.00
2012-3-18,74,63,57,61,57,54,93,80,55,0.00,40.00,6,2,0,0.02
2012-3-19,79,66,54,63,58,53,94,75,53,0.00,40.00,6,2,0,0.00
2012-3-20,83,71,59,59,53,-100,86,57,37,0.00,40.00,8,4,0,0.00
2012-3-21,84,72,58,59,56,54,87,60,38,0.00,40.00,5,3,0,0.00
2012-3-22,81,67,57,60,55,-100,97,69,43,0.00,40.00,6,-11,0,0.00
2012-3-23,66,62,57,62,60,57,99,92,80,0.00,40.00,8,3,0,0.09
2012-3-24,59,57,55,57,56,54,100,97,91,0.00,40.00,5,2,0,0.00
2012-3-25,72,58,48,56,51,38,99,80,51,0.00,40.00,10,4,0,0.02
2012-3-26,49,42,34,40,29,24,76,59,44,0.00,40.00,12,9,0,0.01
2012-3-27,59,44,33,39,27,18,72,52,36,0.00,40.00,10,7,0,0.00
2012-3-28,63,57,45,52,43,36,88,61,43,0.00,40.00,17,10,0,0.00
2012-3-29,54,44,36,36,34,31,87,69,51,0.00,40.00,7,4,0,0.00
2012-3-30,43,40,37,41,36,31,98,86,72,0.00,40.00,11,8,0,0.00
2012-3-31,45,39,35,38,36,33,96,87,74,0.00,40.00,8,6,0,0.00
2012-4-1,65,49,38,54,44,36,91,82,66,0.00,40.00,8,4,0,0.00
2012-4-2,59,49,41,45,39,34,87,71,47,0.00,40.00,13,8,0,0.00
2012-4-3,73,54,43,55,43,31,84,67,52,0.00,40.00,9,6,0,0.00
2012-4-4,63,54,43,51,39,30,86,61,34,0.00,40.00,11,7,0,0.00
2012-4-5,53,44,37,35,32,27,85,63,45,0.00,40.00,11,7,0,0.00
2012-4-6,58,42,29,30,27,23,76,56,32,0.00,40.00,9,5,0,0.10
2012-4-7,64,48,29,37,29,22,99,56,23,0.00,40.00,5,2,0,0.00
2012-4-8,59,53,45,45,34,24,82,53,26,0.00,40.00,14,9,0,0.00
2012-4-9,57,51,42,40,32,21,84,52,27,0.00,40.00,17,8,0,0.00
2012-4-10,41,37,32,28,25,22,75,62,54,0.00,40.00,13,8,0,0.00
2012-4-11,53,41,30,32,28,23,79,61,38,0.00,40.00,9,5,0,0.00
2012-4-12,59,43,28,35,30,27,98,65,34,0.00,40.00,8,3,0,0.00
2012-4-13,63,50,28,34,30,27,98,54,27,0.00,40.00,7,3,0,0.00
2012-4-14,62,55,49,57,45,-100,95,72,42,0.00,40.00,6,3,0,0.19
2012-4-15,74,66,57,64,59,56,98,81,63,0.00,40.00,12,6,0,0.37
2012-4-16,69,58,48,61,49,38,97,74,60,0.00,40.00,20,11,0,0.16
2012-4-17,56,47,34,39,36,33,97,69,48,0.00,40.00,5,3,0,0.00
2012-4-18,67,50,33,43,38,30,95,65,42,0.00,40.00,8,4,0,0.00
2012-4-19,75,63,52,52,47,44,79,58,37,0.00,40.00,9,5,0,0.00
2012-4-20,65,55,41,52,46,40,98,73,48,0.00,40.00,11,7,0,0.12
2012-4-21,54,45,35,38,32,-100,94,67,43,0.00,40.00,11,8,0,0.01
2012-4-22,51,43,33,32,27,21,85,55,36,0.00,40.00,15,10,0,0.00
2012-4-23,55,44,35,26,22,19,59,42,26,0.00,40.00,15,8,0,0.00
2012-4-24,59,49,38,30,26,23,67,43,27,0.00,40.00,14,8,0,0.00
2012-4-25,58,47,36,48,38,29,90,72,46,0.00,40.00,8,3,0,0.05
2012-4-26,56,49,38,50,43,31,97,79,48,0.00,40.00,12,7,0,0.01
2012-4-27,55,42,27,30,24,19,82,50,29,0.00,40.00,9,5,0,0.01
2012-4-28,48,43,41,40,33,-100,86,71,44,0.00,40.00,13,8,0,0.01
2012-4-29,61,48,33,36,32,25,96,60,28,0.00,40.00,13,7,0,0.01
2012-4-30,63,54,44,61,49,35,98,85,60,0.00,40.00,9,5,0,0.02
2012-5-1,65,58,51,57,54,50,97,85,72,0.00,40.00,6,3,0,0.38
2012-5-2,80,68,57,68,61,56,100,80,55,0.00,40.00,13,6,0,0.06
2012-5-3,85,75,61,68,64,60,96,70,50,0.00,40.00,13,7,0,0.01
2012-5-4,83,72,65,67,63,59,91,72,54,0.00,40.00,10,5,0,0.00
2012-5-5,69,63,59,62,57,-100,98,86,74,0.00,40.00,10,7,0,0.00
2012-5-6,74,64,53,57,50,38,96,64,41,0.00,40.00,10,5,0,0.00
2012-5-7,66,58,50,61,51,29,98,81,31,0.00,40.00,9,4,0,0.30
2012-5-8,68,58,49,58,49,43,99,75,42,0.00,40.00,10,4,0,0.00
2012-5-9,59,54,47,48,45,37,92,72,56,0.00,40.00,11,5,0,0.00
2012-5-10,65,52,39,39,36,32,94,58,35,0.00,40.00,6,4,0,0.00
2012-5-11,75,58,38,43,38,34,98,55,23,0.00,40.00,6,2,0,0.00
2012-5-12,66,60,56,59,48,-100,89,69,50,0.00,40.00,5,3,0,0.04
2012-5-13,69,59,54,59,54,50,95,83,66,0.00,40.00,8,4,0,0.00
2012-5-14,77,64,49,53,44,36,85,52,26,0.00,40.00,6,2,0,0.00
2012-5-15,82,64,44,47,44,41,96,54,25,0.00,40.00,7,3,0,0.00
2012-5-16,69,62,53,54,40,32,82,46,29,0.00,40.00,13,7,0,0.00
2012-5-17,71,58,41,42,37,34,80,48,27,0.00,40.00,6,4,0,0.00
2012-5-18,81,66,47,43,39,36,68,39,21,0.00,40.00,6,3,0,0.00
2012-5-19,88,70,50,52,43,-100,84,44,20,0.00,40.00,6,3,0,0.00
2012-5-20,90,76,59,61,54,46,73,48,30,0.00,40.00,6,3,0,0.00
2012-5-21,76,61,54,61,56,50,96,82,51,0.00,40.00,8,5,0,0.13
2012-5-22,73,61,48,50,48,43,87,63,42,0.00,40.00,7,5,0,0.00
2012-5-23,82,64,45,56,49,44,98,64,33,0.00,40.00,5,2,0,0.00
2012-5-24,87,75,61,62,54,46,86,53,26,0.00,40.00,9,5,0,0.00
2012-5-25,81,75,65,62,54,47,65,49,30,0.00,40.00,9,5,0,0.00
2012-5-26,83,70,61,59,51,-100,70,54,38,0.00,40.00,11,6,0,0.00
2012-5-27,96,79,63,65,59,56,78,53,29,0.00,40.00,10,4,0,0.00
2012-5-28,92,81,69,67,62,55,83,56,31,0.00,40.00,10,5,0,0.04
2012-5-29,83,76,68,62,52,42,67,46,26,0.00,40.00,8,5,0,0.14
2012-5-30,70,62,51,52,47,43,94,60,42,0.00,40.00,9,4,0,0.03
2012-5-31,59,52,47,51,47,42,95,84,72,0.00,40.00,12,7,0,0.01
2012-6-1,52,50,47,50,48,44,99,94,82,0.00,40.00,11,8,0,0.01
2012-6-2,72,59,46,51,44,-100,94,63,32,0.00,40.00,9,5,0,0.00
2012-6-3,76,66,54,56,50,42,94,59,30,0.00,40.00,11,6,0,0.01
2012-6-4,76,65,54,52,51,48,87,62,38,0.00,40.00,8,5,0,0.00
2012-6-5,69,62,52,52,49,45,90,64,42,0.00,40.00,10,6,0,0.00
2012-6-6,79,64,48,53,48,44,98,62,30,0.00,40.00,7,3,0,0.02
2012-6-7,79,67,52,54,50,46,94,59,33,0.00,40.00,9,3,0,0.03
2012-6-8,82,68,48,55,51,47,98,60,32,0.00,40.00,6,2,0,0.00
2012-6-9,87,74,60,57,54,51,79,52,30,0.00,40.00,6,3,0,0.00
2012-6-10,90,76,58,62,57,52,94,56,28,0.00,40.00,6,2,0,0.09
2012-6-11,85,75,65,68,64,58,96,68,55,0.00,40.00,7,4,0,0.00
2012-6-12,70,67,59,68,54,46,97,66,44,0.00,40.00,11,6,0,0.00
2012-6-13,72,61,49,49,45,40,88,59,30,0.00,40.00,8,4,0,0.00
2012-6-14,81,66,51,53,47,40,83,54,24,0.00,40.00,8,3,0,0.00
2012-6-15,83,67,56,56,52,50,82,61,34,0.00,40.00,5,2,0,0.00
2012-6-18,89,86,82,68,66,64,54,50,47,0.00,40.00,10,8,0,0.00
2012-6-19,90,81,72,71,66,63,73,60,47,0.00,40.00,6,5,0,0.75
2012-6-20,90,80,71,66,53,-100,76,44,41,0.00,40.00,8,-60,0,0.00
2012-6-21,85,74,64,70,65,62,95,73,56,0.00,40.00,9,4,0,0.29
2012-6-22,80,71,58,64,57,51,99,66,38,0.00,40.00,7,3,0,0.00
2012-6-23,83,71,58,60,56,53,96,64,35,0.00,40.00,3,2,0,0.00
2012-6-24,86,76,65,65,60,57,90,61,40,0.00,40.00,7,2,0,0.00
2012-6-25,76,69,60,61,51,44,78,55,31,0.00,40.00,11,7,0,0.00
2012-6-26,79,66,51,56,49,43,98,59,28,0.00,40.00,5,2,0,0.00
2012-6-27,88,73,54,57,54,51,98,57,29,0.00,40.00,5,2,0,0.00
2012-6-28,95,82,69,74,65,52,70,56,45,0.00,40.00,10,4,0,0.00
2012-6-29,86,78,70,71,66,60,89,68,42,0.00,40.00,7,3,0,0.04
2012-6-30,86,78,67,71,68,65,97,73,51,0.00,40.00,6,3,0,0.11
2012-7-1,89,76,65,74,69,65,99,80,53,0.00,40.00,7,2,0,0.00
2012-7-2,92,78,64,73,70,63,99,76,48,0.00,40.00,3,1,0,0.00
2012-7-3,94,82,74,73,70,66,90,68,45,0.00,40.00,5,2,0,0.00
2012-7-4,97,86,73,75,71,64,93,65,34,0.00,40.00,8,3,0,0.00
2012-7-5,98,87,75,75,71,64,93,63,33,0.00,40.00,7,3,0,0.00
2012-7-6,101,86,72,77,72,69,93,66,41,0.00,40.00,4,2,0,0.66
2012-7-7,97,86,78,75,73,69,90,66,41,0.00,40.00,8,4,0,0.14
2012-7-8,86,78,70,69,63,50,89,63,29,0.00,40.00,10,6,0,0.00
2012-7-9,88,74,59,64,60,57,96,64,36,0.00,40.00,8,2,0,0.00
2012-7-10,86,75,63,60,55,46,85,55,25,0.00,40.00,9,5,0,0.00
2012-7-11,86,75,60,60,53,47,87,51,25,0.00,40.00,7,4,0,0.05
2012-7-12,88,76,59,59,53,48,81,50,25,0.00,40.00,9,3,0,0.00
2012-7-13,91,77,64,69,62,58,89,62,35,0.00,40.00,7,2,0,0.00
2012-7-14,92,77,66,71,66,62,94,73,41,0.00,40.00,8,2,0,0.57
2012-7-15,88,78,66,72,67,63,95,73,46,0.00,40.00,9,3,0,0.00
2012-7-16,92,78,62,72,67,62,98,72,42,0.00,40.00,5,2,0,0.00
2012-7-17,95,83,72,73,70,67,88,67,41,0.00,40.00,6,3,0,0.00
2012-7-18,89,80,73,74,72,71,93,79,59,0.00,40.00,5,2,0,0.14
2012-7-19,83,74,70,73,71,69,99,89,71,0.00,40.00,8,4,0,1.59
2012-7-20,80,73,64,68,61,58,94,70,46,0.00,40.00,11,8,0,0.03
2012-7-21,83,71,59,67,62,58,97,74,51,0.00,40.00,4,1,0,0.00
2012-7-22,88,77,65,70,68,64,98,76,54,0.00,40.00,5,2,0,0.00
2012-7-23,92,81,72,74,71,69,90,73,53,0.00,40.00,6,3,0,0.14
2012-7-24,82,77,70,74,70,65,96,81,56,0.00,40.00,7,3,0,0.39
2012-7-25,89,75,65,77,67,61,94,75,59,0.00,40.00,6,3,0,0.01
2012-7-26,82,78,73,75,71,69,90,78,64,0.00,40.00,7,4,0,0.06
2012-7-27,80,72,63,71,67,63,99,85,66,0.00,40.00,7,3,0,0.35
2012-7-28,83,73,65,65,61,55,94,69,38,0.00,40.00,9,6,0,0.00
2012-7-29,82,72,57,65,58,52,99,67,35,0.00,40.00,3,1,0,0.00
2012-7-30,88,76,65,69,65,62,93,72,44,0.00,40.00,3,1,0,0.00
2012-7-31,83,74,64,70,66,62,97,76,53,0.00,40.00,11,4,0,0.45
2012-8-1,84,74,63,65,62,58,98,68,43,0.00,40.00,8,3,0,0.00
2012-8-2,88,75,62,72,66,61,97,76,49,0.00,40.00,3,1,0,0.00
2012-8-3,92,78,65,70,67,63,99,72,38,0.00,40.00,5,2,0,0.00
2012-8-4,88,76,67,75,69,65,96,80,62,0.00,40.00,5,3,0,0.11
2012-8-5,79,73,64,71,64,54,98,76,44,0.00,40.00,10,5,0,0.16
2012-8-6,81,67,51,60,55,51,99,70,37,0.00,40.00,3,1,0,0.00
2012-8-7,87,72,55,67,60,55,99,70,41,0.00,40.00,5,2,0,0.00
2012-8-8,88,75,65,66,63,58,95,68,37,0.00,40.00,8,4,0,0.01
2012-8-9,71,66,63,64,63,61,97,91,70,0.00,40.00,9,6,0,0.48
2012-8-10,62,60,56,61,58,54,96,94,87,0.00,40.00,9,7,0,0.22
2012-8-11,74,65,58,59,56,-100,95,74,57,0.00,40.00,11,7,0,0.00
2012-8-12,75,65,53,62,57,53,98,78,55,0.00,40.00,5,2,0,0.00
2012-8-13,67,63,61,63,61,60,98,92,83,0.00,40.00,5,2,0,0.54
2012-8-14,78,67,61,64,62,60,99,83,56,0.00,40.00,5,3,0,0.50
2012-8-15,81,70,60,66,63,60,99,81,51,0.00,40.00,5,1,0,0.00
2012-8-16,71,67,62,67,63,59,98,89,72,0.00,40.00,6,3,0,0.35
2012-8-17,72,65,57,64,57,50,97,76,53,0.00,40.00,9,4,0,0.00
2012-8-18,74,60,44,55,49,44,99,71,38,0.00,40.00,3,1,0,0.00
2012-8-19,77,64,52,57,52,50,99,71,39,0.00,40.00,5,2,0,0.00
2012-8-20,76,63,50,60,54,50,99,75,48,0.00,40.00,5,2,0,0.00
2012-8-21,78,64,50,57,52,45,98,70,31,0.00,40.00,5,2,0,0.00
2012-8-22,80,66,50,60,54,49,99,71,37,0.00,40.00,3,1,0,0.00
2012-8-23,86,70,54,63,58,53,99,70,37,0.00,40.00,3,1,0,0.00
2012-8-24,88,74,58,63,60,56,94,66,35,0.00,40.00,5,2,0,0.00
2012-8-25,91,74,60,67,60,-100,93,68,31,0.00,40.00,3,1,0,0.00
2012-8-26,88,73,62,70,65,60,98,78,48,0.00,40.00,6,2,0,0.17
2012-8-27,83,74,68,72,66,57,99,79,45,0.00,40.00,8,4,0,1.39
2012-8-28,81,70,56,61,59,55,97,70,50,0.00,40.00,7,3,0,0.00
2012-8-29,83,69,56,63,58,54,99,73,37,0.00,40.00,3,1,0,0.00
2012-8-30,84,70,53,62,59,53,100,72,47,0.00,40.00,5,2,0,0.00
2012-8-31,90,75,59,73,66,56,89,74,55,0.00,40.00,6,2,0,0.00
2012-9-1,77,73,67,72,70,64,98,89,81,0.00,40.00,6,3,0,0.00
2012-9-2,81,74,68,72,69,64,94,84,71,0.00,40.00,9,7,0,0.00
2012-9-3,87,76,65,73,69,63,94,79,60,0.00,40.00,7,4,0,0.00
2012-9-4,86,75,67,70,69,66,99,81,57,0.00,40.00,5,2,0,0.00
2012-9-5,80,72,65,69,67,65,99,85,65,0.00,40.00,8,3,0,0.01
2012-9-6,86,74,66,69,63,57,97,73,38,0.00,40.00,6,2,0,0.00
2012-9-7,81,66,56,65,61,55,99,84,54,0.00,40.00,9,2,0,0.11
2012-9-8,68,62,54,58,53,49,96,75,53,0.00,40.00,9,6,0,0.04
2012-9-9,73,60,51,59,53,49,99,78,48,0.00,40.00,6,3,0,0.24
2012-9-10,74,61,45,52,48,45,98,67,38,0.00,40.00,4,2,0,0.00
2012-9-11,81,64,48,56,52,46,94,67,39,0.00,40.00,7,3,0,0.00
2012-9-12,84,67,49,59,54,48,96,67,37,0.00,40.00,7,2,0,0.00
2012-9-13,82,69,60,61,58,55,86,70,45,0.00,40.00,8,3,0,0.00
2012-9-14,71,59,52,56,51,43,97,77,37,0.00,40.00,8,4,0,0.37
2012-9-15,74,57,44,52,47,43,99,73,37,0.00,40.00,4,1,0,0.00
2012-9-16,77,60,45,54,48,43,99,70,29,0.00,40.00,5,1,0,0.00
2012-9-17,77,62,47,59,54,46,97,76,49,0.00,40.00,5,2,0,0.00
2012-9-18,64,57,47,61,48,34,95,74,42,0.00,40.00,11,6,0,0.04
2012-9-19,68,53,39,45,40,37,96,67,31,0.00,40.00,7,3,0,0.01
2012-9-20,71,61,49,52,44,39,84,54,33,0.00,40.00,7,4,0,0.00
2012-9-21,69,53,45,52,45,36,97,78,30,0.00,40.00,7,3,0,0.15
2012-9-22,54,49,46,50,46,-100,99,90,71,0.00,40.00,8,4,0,0.31
2012-9-23,53,47,40,48,42,37,99,82,54,0.00,40.00,9,3,0,0.04
2012-9-24,66,50,35,39,35,32,97,64,28,0.00,40.00,8,3,0,0.00
2012-9-25,70,58,47,60,48,38,92,70,53,0.00,40.00,5,3,0,0.00
2012-9-26,71,62,54,63,57,48,99,84,54,0.00,40.00,5,2,0,0.00
2012-9-27,68,57,47,54,49,45,93,75,60,0.00,40.00,7,5,0,0.00
2012-9-28,65,55,48,51,48,46,95,79,57,0.00,40.00,6,2,0,0.00
2012-9-29,72,52,39,47,43,39,98,76,32,0.00,40.00,7,2,0,0.00
2012-9-30,67,54,44,51,44,40,97,73,38,0.00,40.00,10,4,0,0.00
2012-10-1,64,51,38,48,44,38,99,78,50,0.00,40.00,6,2,0,0.00
2012-10-2,67,58,52,55,50,46,91,75,56,0.00,40.00,12,6,0,0.02
2012-10-3,60,58,55,58,56,54,99,93,84,0.00,40.00,5,3,0,0.03
2012-10-4,78,64,52,59,54,51,97,74,39,0.00,40.00,8,4,0,0.11
2012-10-5,59,50,41,57,46,40,95,85,68,0.00,40.00,5,4,0,0.09
2012-10-6,46,40,34,40,36,32,96,83,63,0.00,40.00,8,3,0,0.00
2012-10-7,46,42,38,41,38,31,94,86,62,0.00,40.00,8,2,0,0.02
2012-10-8,55,42,29,33,29,26,94,66,33,0.00,40.00,5,2,0,0.00
2012-10-9,63,50,37,40,35,29,78,58,39,0.00,40.00,9,5,0,0.00
2012-10-10,55,44,36,43,36,29,98,77,52,0.00,40.00,11,5,0,0.24
2012-10-11,62,45,31,41,33,28,90,66,34,0.00,40.00,12,4,0,0.00
2012-10-12,52,44,34,41,33,24,95,70,35,0.00,40.00,9,4,0,0.04
2012-10-13,63,48,34,62,42,29,98,82,70,0.00,40.00,7,4,0,0.45
2012-10-14,71,65,51,63,60,50,97,86,59,0.00,40.00,13,7,0,0.37
2012-10-15,50,47,39,49,44,37,98,90,75,0.00,40.00,8,4,0,0.06
2012-10-16,63,46,30,45,39,30,99,77,50,0.00,40.00,7,3,0,0.00
2012-10-17,72,61,54,56,50,45,93,68,42,0.00,40.00,9,6,0,0.27
2012-10-18,60,53,45,55,45,35,97,77,45,0.00,40.00,10,7,0,0.35
2012-10-19,49,46,44,47,44,41,98,93,86,0.00,40.00,6,4,0,0.37
2012-10-20,53,47,43,48,44,43,99,89,68,0.00,40.00,6,3,0,0.20
2012-10-21,63,50,36,48,43,35,98,79,58,0.00,40.00,5,2,0,0.00
2012-10-22,67,56,46,60,52,44,93,85,66,0.00,40.00,5,3,0,0.02
2012-10-23,68,63,60,62,59,56,94,87,81,0.00,40.00,8,3,0,0.03
2012-10-24,78,67,60,62,60,56,94,77,56,0.00,40.00,5,3,0,0.01
2012-10-25,77,68,59,60,57,54,83,68,54,0.00,40.00,9,5,0,0.00
2012-10-26,61,46,40,55,38,32,95,73,54,0.00,40.00,14,8,0,0.20
2012-10-27,52,42,34,35,31,30,86,68,43,0.00,40.00,9,6,0,0.00
2012-10-28,46,40,34,34,30,25,85,68,54,0.00,40.00,11,7,0,0.00
2012-10-29,46,40,34,28,25,21,73,55,38,0.00,40.00,14,10,0,0.00
2012-10-30,41,39,37,36,32,23,91,77,49,0.00,40.00,13,11,0,0.11
2012-10-31,43,40,37,38,36,34,93,86,72,0.00,40.00,12,9,0,0.04
2012-11-1,48,42,36,38,31,26,90,67,44,0.00,40.00,12,6,0,0.00
2012-11-2,45,40,33,32,30,26,83,68,55,0.00,40.00,9,4,0,0.00
2012-11-3,41,34,27,32,30,26,97,84,64,0.00,40.00,6,3,0,0.00
2012-11-4,42,35,25,31,28,23,91,75,58,0.00,40.00,5,2,0,0.00
2012-11-5,44,30,19,29,24,19,97,81,51,0.00,40.00,4,1,0,0.00
2012-11-6,45,34,22,31,27,21,96,76,53,0.00,40.00,6,3,0,0.00
2012-11-7,50,38,29,34,30,27,91,74,48,0.00,40.00,7,3,0,0.00
2012-11-8,46,35,23,37,30,23,97,84,68,0.00,40.00,4,1,0,0.00
2012-11-9,57,43,29,46,36,28,98,78,54,0.00,40.00,7,2,0,0.03
2012-11-10,64,57,50,51,46,44,83,68,56,0.00,40.00,7,4,0,0.00
2012-11-11,68,61,54,50,47,44,69,60,51,0.00,40.00,11,8,0,0.00
2012-11-12,62,40,33,51,33,21,97,76,49,0.00,40.00,9,7,0,0.46
2012-11-13,37,32,25,26,22,20,89,69,51,0.00,40.00,7,2,0,0.00
2012-11-14,40,30,22,27,22,-100,93,78,55,0.00,40.00,5,1,0,0.00
2012-11-15,46,31,21,32,26,21,97,83,53,0.00,40.00,2,0,0,0.00
2012-11-16,54,34,22,34,27,21,98,79,40,0.00,40.00,1,0,0,0.00
2012-11-17,54,36,24,34,29,23,98,77,42,0.00,40.00,4,1,0,0.00
2012-11-18,57,40,29,36,31,28,97,74,35,0.00,40.00,4,1,0,0.00
2012-11-19,56,42,31,37,33,29,95,73,47,0.00,40.00,3,1,0,0.00
2012-11-20,51,46,39,43,39,36,91,77,66,0.00,40.00,2,1,0,0.00
2012-11-21,52,38,32,49,37,31,99,96,78,0.00,40.00,3,0,0,0.00
2012-11-22,60,48,32,47,41,32,100,80,54,0.00,40.00,8,4,0,0.01
2012-11-23,52,37,31,49,30,22,89,73,66,0.00,40.00,14,10,0,0.00
2012-11-24,32,30,27,25,22,20,81,73,68,0.00,40.00,9,6,0,0.00
2012-11-25,40,31,26,28,24,20,92,76,62,0.00,40.00,7,4,0,0.00
2012-11-26,31,26,23,27,24,22,97,93,74,0.00,40.00,3,0,0,0.00
2012-11-27,36,29,22,22,20,16,81,68,51,0.00,40.00,5,2,0,0.00
2012-11-28,41,30,22,28,21,15,86,68,51,0.00,40.00,7,3,0,0.00
2012-11-29,49,35,22,31,26,19,88,70,45,0.00,40.00,9,2,0,0.00
2012-11-30,49,41,33,33,31,29,86,68,55,0.00,40.00,4,2,0,0.00
2012-12-1,58,45,31,50,40,29,99,85,65,0.00,40.00,7,4,0,0.01
2012-12-2,57,53,45,55,50,45,98,90,69,0.00,40.00,9,4,0,0.10
2012-12-3,63,56,47,60,55,46,100,95,80,0.00,40.00,10,4,0,0.00
2012-12-4,63,49,40,58,44,34,100,83,57,0.00,40.00,12,5,0,0.78
2012-12-5,42,33,27,33,25,22,84,72,57,0.00,40.00,10,4,0,0.00
2012-12-6,39,32,27,35,24,-100,87,78,73,0.00,40.00,6,4,0,0.00
2012-12-7,44,42,39,43,40,36,99,94,87,0.00,40.00,5,2,0,0.08
2012-12-8,42,39,32,42,39,31,100,99,95,0.00,40.00,8,3,0,0.14
2012-12-9,38,35,32,38,34,30,100,93,87,0.00,40.00,12,7,0,0.25
2012-12-19,41,39,36,36,35,35,94,86,77,0.00,40.00,9,2,0,0.01
2012-12-20,48,40,33,47,37,31,95,91,81,0.00,40.00,17,11,0,0.82
2012-12-21,36,33,31,36,31,26,100,93,78,0.00,40.00,18,12,0,0.18
2012-12-22,32,28,20,26,24,19,92,81,74,0.00,40.00,10,6,0,0.00
2012-12-23,37,25,15,27,21,15,97,85,62,0.00,40.00,7,2,0,0.00
2012-12-24,32,27,21,30,24,19,95,89,82,0.00,40.00,9,5,0,0.00
2012-12-25,34,27,19,24,22,17,94,81,65,0.00,40.00,10,5,0,0.00
2012-12-26,28,27,25,27,24,20,98,86,74,0.00,40.00,17,13,0,0.00
2012-12-27,34,25,22,24,21,18,93,83,66,0.00,40.00,8,4,0,0.04
2012-12-28,29,27,23,29,26,22,97,94,90,0.00,40.00,4,2,0,0.07
2012-12-29,32,28,25,27,26,24,97,91,78,0.00,40.00,4,3,0,0.01
2012-12-30,30,23,18,28,19,14,97,85,74,0.00,40.00,11,6,0,0.00
2012-12-31,34,30,23,27,24,19,84,78,71,0.00,40.00,10,7,0,0.01
2013-1-1,28,25,21,22,17,13,79,73,66,0.00,40.00,9,4,0,0.00